createdAt,value
2023-05-07T00:04:18.543Z,14.90
2023-05-07T00:06:48.078Z,15.00
2023-05-07T00:09:17.566Z,15.00
2023-05-07T00:11:45.657Z,14.90
2023-05-07T00:14:13.723Z,14.80
2023-05-07T00:16:41.790Z,14.70
2023-05-07T00:19:09.929Z,14.70
2023-05-07T00:21:38.070Z,14.70
2023-05-07T00:24:07.935Z,14.60
2023-05-07T00:26:36.011Z,14.60
2023-05-07T00:29:04.116Z,14.50
2023-05-07T00:31:32.219Z,14.50
2023-05-07T00:34:00.320Z,14.40
2023-05-07T00:36:28.371Z,14.40
2023-05-07T00:38:57.303Z,14.40
2023-05-07T00:41:26.866Z,14.40
2023-05-07T00:43:54.979Z,14.40
2023-05-07T00:46:23.656Z,14.40
2023-05-07T00:48:52.660Z,14.40
2023-05-07T00:51:21.008Z,14.40
2023-05-07T00:53:49.510Z,14.40
2023-05-07T00:56:17.886Z,14.40
2023-05-07T00:58:47.384Z,14.50
2023-05-07T01:01:16.963Z,14.50
2023-05-07T01:03:45.425Z,14.60
2023-05-07T01:06:17.771Z,14.70
2023-05-07T01:08:47.173Z,14.60
2023-05-07T01:11:16.096Z,14.40
2023-05-07T01:13:44.334Z,14.30
2023-05-07T01:16:13.813Z,14.20
2023-05-07T01:18:42.021Z,14.40
2023-05-07T01:21:13.084Z,14.50
2023-05-07T01:23:43.472Z,14.60
2023-05-07T01:26:11.561Z,14.70
2023-05-07T01:40:24.052Z,14.50
2023-05-07T01:42:52.555Z,14.50
2023-05-07T01:45:20.843Z,14.60
2023-05-07T01:47:49.224Z,14.60
2023-05-07T01:50:19.331Z,14.60
2023-05-07T01:52:47.443Z,14.60
2023-05-07T01:55:15.653Z,14.60
2023-05-07T01:57:45.164Z,14.60
2023-05-07T02:00:14.127Z,14.60
2023-05-07T02:02:42.321Z,14.70
2023-05-07T02:05:11.019Z,14.80
2023-05-07T02:07:39.158Z,14.80
2023-05-07T02:10:08.547Z,14.80
2023-05-07T02:12:36.929Z,14.70
2023-05-07T02:15:07.634Z,14.70
2023-05-07T02:17:36.593Z,14.60
2023-05-07T02:20:05.677Z,14.60
2023-05-07T02:22:33.903Z,14.60
2023-05-07T02:25:02.017Z,14.60
2023-05-07T02:27:30.062Z,14.60
2023-05-07T02:29:58.152Z,14.50
2023-05-07T02:32:27.705Z,14.50
2023-05-07T02:42:37.437Z,14.50
2023-05-07T02:45:06.386Z,14.50
2023-05-07T02:47:35.872Z,14.40
2023-05-07T02:50:04.526Z,14.40
2023-05-07T02:52:32.584Z,14.40
2023-05-07T02:55:00.678Z,14.30
2023-05-07T02:57:28.794Z,14.30
2023-05-07T02:59:56.934Z,14.30
2023-05-07T03:07:57.034Z,14.20
2023-05-07T03:10:25.140Z,14.20
2023-05-07T03:12:53.271Z,14.20
2023-05-07T03:15:21.543Z,14.20
2023-05-07T03:17:49.740Z,14.20
2023-05-07T03:20:18.184Z,14.10
2023-05-07T03:22:46.428Z,14.10
2023-05-07T03:25:16.150Z,14.10
2023-05-07T03:27:44.458Z,14.10
2023-05-07T03:30:14.064Z,14.10
2023-05-07T03:32:42.224Z,14.10
2023-05-07T03:35:10.896Z,14.10
2023-05-07T03:37:39.768Z,14.20
2023-05-07T03:40:11.432Z,14.10
2023-05-07T03:42:41.451Z,14.10
2023-05-07T03:45:10.896Z,14.20
2023-05-07T03:47:39.005Z,14.20
2023-05-07T03:50:07.741Z,14.30
2023-05-07T03:52:35.821Z,14.40
2023-05-07T03:55:03.962Z,14.40
2023-05-07T03:57:32.013Z,14.50
2023-05-07T04:00:26.114Z,14.40
2023-05-07T04:02:54.263Z,14.30
2023-05-07T04:05:22.402Z,14.30
2023-05-07T04:07:50.454Z,14.30
2023-05-07T04:10:18.714Z,14.30
2023-05-07T04:12:46.819Z,14.40
2023-05-07T04:15:15.080Z,14.30
2023-05-07T04:17:44.566Z,14.40
2023-05-07T04:20:17.584Z,14.20
2023-05-07T04:22:45.753Z,14.20
2023-05-07T04:25:13.816Z,14.30
2023-05-07T04:27:41.860Z,14.30
2023-05-07T04:30:10.986Z,14.20
2023-05-07T04:32:39.259Z,14.20
2023-05-07T04:35:53.689Z,14.30
2023-05-07T04:38:24.600Z,14.20
2023-05-07T04:40:52.865Z,14.20
2023-05-07T04:43:20.971Z,14.10
2023-05-07T04:45:50.382Z,14.10
2023-05-07T04:48:20.196Z,14.20
2023-05-07T04:50:50.262Z,14.20
2023-05-07T04:53:18.822Z,14.10
2023-05-07T04:55:48.283Z,14.20
2023-05-07T04:58:16.700Z,14.20
2023-05-07T05:00:44.805Z,14.20
2023-05-07T05:03:13.175Z,14.10
2023-05-07T05:05:41.288Z,14.10
2023-05-07T05:08:09.443Z,14.10
2023-05-07T05:10:37.572Z,14.10
2023-05-07T05:13:07.116Z,14.10
2023-05-07T05:15:35.245Z,14.10
2023-05-07T05:18:03.421Z,14.20
2023-05-07T05:20:31.535Z,14.20
2023-05-07T05:22:59.655Z,14.20
2023-05-07T05:25:28.599Z,14.40
2023-05-07T05:27:56.822Z,14.40
2023-05-07T05:34:16.944Z,14.40
2023-05-07T05:36:45.695Z,14.40
2023-05-07T05:39:13.763Z,14.40
2023-05-07T05:41:41.833Z,14.40
2023-05-07T05:44:09.900Z,14.40
2023-05-07T05:46:38.037Z,14.40
2023-05-07T05:49:06.211Z,14.40
2023-05-07T05:51:35.757Z,14.40
2023-05-07T05:54:03.882Z,14.60
2023-05-07T05:56:31.960Z,14.80
2023-05-07T05:59:00.221Z,14.80
2023-05-07T06:01:28.506Z,14.80
2023-05-07T06:03:56.539Z,14.70
2023-05-07T06:06:24.645Z,14.70
2023-05-07T06:08:54.119Z,14.70
2023-05-07T06:11:22.458Z,15.00
2023-05-07T06:13:50.562Z,15.20
2023-05-07T06:16:18.749Z,15.10
2023-05-07T06:18:47.672Z,15.20
2023-05-07T06:21:16.081Z,15.20
2023-05-07T06:23:44.134Z,15.00
2023-05-07T06:26:13.608Z,15.00
2023-05-07T06:28:41.643Z,14.90
2023-05-07T06:31:17.116Z,14.90
2023-05-07T06:33:46.338Z,14.90
2023-05-07T06:36:14.744Z,14.90
2023-05-07T06:38:42.848Z,15.00
2023-05-07T06:41:11.076Z,14.90
2023-05-07T06:43:40.540Z,14.90
2023-05-07T06:46:08.781Z,14.90
2023-05-07T06:48:36.942Z,14.80
2023-05-07T06:51:05.333Z,15.00
2023-05-07T06:53:33.538Z,14.90
2023-05-07T06:56:01.565Z,14.90
2023-05-07T06:58:29.676Z,14.80
2023-05-07T07:00:59.096Z,15.10
2023-05-07T07:03:27.241Z,15.20
2023-05-07T07:05:55.377Z,15.20
2023-05-07T07:08:24.390Z,15.30
2023-05-07T07:10:52.465Z,15.40
2023-05-07T07:13:20.716Z,15.40
2023-05-07T07:15:48.967Z,15.40
2023-05-07T07:18:18.384Z,15.40
2023-05-07T07:20:46.665Z,15.50
2023-05-07T07:23:14.952Z,15.90
2023-05-07T07:25:43.066Z,16.10
2023-05-07T07:28:11.626Z,16.10
2023-05-07T07:30:40.109Z,16.10
2023-05-07T07:33:08.384Z,16.00
2023-05-07T07:35:38.042Z,16.10
2023-05-07T07:38:06.221Z,16.20
2023-05-07T07:43:04.418Z,16.00
2023-05-07T07:45:32.490Z,16.00
2023-05-07T07:48:00.549Z,16.00
2023-05-07T07:50:43.545Z,16.00
2023-05-07T07:53:14.937Z,16.10
2023-05-07T07:55:43.046Z,16.10
2023-05-07T07:58:11.164Z,16.20
2023-05-07T08:00:39.285Z,16.60
2023-05-07T08:03:08.474Z,16.70
2023-05-07T08:05:37.581Z,16.80
2023-05-07T08:08:06.922Z,17.00
2023-05-07T08:10:39.325Z,17.10
2023-05-07T08:13:08.012Z,17.00
2023-05-07T08:15:36.462Z,17.00
2023-05-07T08:18:05.138Z,16.90
2023-05-07T08:20:33.516Z,16.80
2023-05-07T08:23:01.648Z,17.00
2023-05-07T08:25:29.853Z,17.10
2023-05-07T08:27:59.335Z,17.10
2023-05-07T08:30:28.046Z,17.20
2023-05-07T08:32:56.210Z,17.20
2023-05-07T08:35:24.623Z,17.40
2023-05-07T08:37:52.846Z,17.90
2023-05-07T08:40:21.255Z,18.40
2023-05-07T08:42:53.712Z,18.70
2023-05-07T08:45:23.279Z,18.60
2023-05-07T08:47:58.899Z,18.70
2023-05-07T08:50:27.112Z,18.70
2023-05-07T08:52:55.360Z,18.80
2023-05-07T08:55:24.810Z,19.60
2023-05-07T08:57:54.031Z,19.70
2023-05-07T09:00:23.742Z,20.20
2023-05-07T09:02:52.048Z,20.10
2023-05-07T09:05:20.293Z,20.00
2023-05-07T09:07:48.942Z,20.50
2023-05-07T09:10:17.296Z,21.50
2023-05-07T09:12:45.382Z,21.20
2023-05-07T09:15:14.193Z,22.10
2023-05-07T09:17:45.308Z,22.30
2023-05-07T09:20:13.704Z,21.90
2023-05-07T09:22:41.884Z,21.60
2023-05-07T09:25:11.357Z,21.50
2023-05-07T09:27:40.011Z,21.70
2023-05-07T09:30:09.374Z,21.60
2023-05-07T09:32:39.212Z,21.70
2023-05-07T09:35:17.968Z,21.80
2023-05-07T09:37:46.736Z,22.10
2023-05-07T09:40:23.326Z,22.50
2023-05-07T09:42:51.712Z,22.80
2023-05-07T09:45:24.563Z,23.10
2023-05-07T09:47:57.075Z,23.90
2023-05-07T09:50:31.766Z,24.60
2023-05-07T09:52:59.935Z,24.30
2023-05-07T09:55:28.063Z,25.00
2023-05-07T09:57:56.772Z,24.90
2023-05-07T10:00:25.878Z,24.70
2023-05-07T10:02:54.863Z,23.40
2023-05-07T10:05:24.172Z,23.70
2023-05-07T10:07:54.989Z,23.90
2023-05-07T10:10:24.205Z,23.70
2023-05-07T10:12:53.450Z,23.60
2023-05-07T10:15:21.765Z,22.70
2023-05-07T10:29:38.028Z,22.40
2023-05-07T10:32:34.771Z,22.20
2023-05-07T10:35:07.026Z,22.30
2023-05-07T10:49:16.061Z,22.20
2023-05-07T10:51:46.816Z,22.50
2023-05-07T10:54:24.785Z,22.90
2023-05-07T10:56:53.113Z,22.80
2023-05-07T10:59:34.855Z,22.80
2023-05-07T11:02:05.227Z,22.70
2023-05-07T11:04:36.268Z,22.60
2023-05-07T11:07:37.632Z,22.90
2023-05-07T11:10:08.684Z,23.00
2023-05-07T11:12:50.607Z,23.00
2023-05-07T11:15:40.121Z,22.80
2023-05-07T11:18:08.480Z,22.80
2023-05-07T11:20:57.615Z,22.90
2023-05-07T11:24:11.166Z,22.40
2023-05-07T11:26:47.677Z,22.50
2023-05-07T11:29:19.466Z,22.40
2023-05-07T11:31:52.332Z,22.40
2023-05-07T11:34:24.762Z,22.00
2023-05-07T11:36:54.865Z,21.80
2023-05-07T11:43:41.129Z,21.50
2023-05-07T11:46:11.599Z,21.60
2023-05-07T11:48:41.019Z,21.80
2023-05-07T11:51:13.107Z,21.90
2023-05-07T11:53:44.064Z,22.20
2023-05-07T11:56:13.862Z,22.30
2023-05-07T11:58:42.676Z,21.90
2023-05-07T12:01:11.723Z,22.00
2023-05-07T12:03:43.767Z,22.10
2023-05-07T12:06:12.908Z,21.90
2023-05-07T12:08:45.289Z,22.00
2023-05-07T12:11:18.434Z,22.00
2023-05-07T12:13:46.922Z,22.00
2023-05-07T12:16:15.229Z,22.50
2023-05-07T12:18:43.414Z,22.30
2023-05-07T12:21:11.939Z,22.40
2023-05-07T12:23:42.213Z,22.30
2023-05-07T12:26:11.411Z,22.30
2023-05-07T12:32:30.760Z,22.10
2023-05-07T12:38:52.182Z,22.40
2023-05-07T12:41:26.689Z,22.60
2023-05-07T12:43:58.884Z,23.00
2023-05-07T12:46:27.099Z,22.70
2023-05-07T12:48:55.862Z,22.70
2023-05-07T12:51:24.852Z,22.60
2023-05-07T12:53:58.343Z,22.80
2023-05-07T12:56:26.477Z,22.60
2023-05-07T12:58:59.801Z,22.40
2023-05-07T13:01:31.785Z,22.30
2023-05-07T13:04:03.526Z,22.70
2023-05-07T13:06:33.268Z,22.70
2023-05-07T13:09:02.668Z,22.40
2023-05-07T13:11:30.902Z,22.50
2023-05-07T13:13:58.936Z,22.70
2023-05-07T13:16:27.125Z,23.10
2023-05-07T13:18:55.276Z,23.30
2023-05-07T13:21:23.358Z,23.00
2023-05-07T13:23:51.444Z,22.90
2023-05-07T13:26:26.896Z,22.60
2023-05-07T13:28:55.739Z,22.60
2023-05-07T13:31:23.974Z,22.40
2023-05-07T13:33:53.577Z,22.50
2023-05-07T13:36:21.794Z,22.60
2023-05-07T13:38:49.869Z,22.40
2023-05-07T13:41:18.052Z,22.60
2023-05-07T13:43:47.528Z,22.50
2023-05-07T13:46:15.697Z,22.70
2023-05-07T13:48:43.923Z,22.80
2023-05-07T13:51:12.063Z,22.80
2023-05-07T13:53:40.188Z,22.80
2023-05-07T13:56:08.376Z,22.80
2023-05-07T13:58:42.193Z,22.70
2023-05-07T14:01:18.022Z,22.60
2023-05-07T14:03:46.596Z,22.60
2023-05-07T14:06:14.750Z,22.70
2023-05-07T14:08:42.850Z,22.80
2023-05-07T14:11:10.980Z,22.70
2023-05-07T14:13:39.149Z,22.70
2023-05-07T14:16:07.806Z,22.60
2023-05-07T14:18:38.160Z,22.50
2023-05-07T14:21:08.620Z,22.40
2023-05-07T14:23:37.054Z,22.50
2023-05-07T14:26:05.362Z,22.70
2023-05-07T14:28:33.459Z,22.70
2023-05-07T14:31:01.996Z,22.70
2023-05-07T14:33:30.114Z,22.60
2023-05-07T14:35:59.637Z,22.50
2023-05-07T14:38:27.805Z,22.50
2023-05-07T14:40:57.231Z,22.20
2023-05-07T14:43:25.491Z,21.60
2023-05-07T14:45:54.162Z,21.10
2023-05-07T14:48:22.228Z,20.70
2023-05-07T14:50:50.481Z,20.40
2023-05-07T14:53:19.897Z,20.10
2023-05-07T14:55:48.956Z,19.80
2023-05-07T14:58:17.291Z,19.60
2023-05-07T15:00:45.415Z,19.40
2023-05-07T15:03:14.514Z,19.30
2023-05-07T15:05:42.817Z,19.00
2023-05-07T15:08:11.378Z,18.70
2023-05-07T15:10:42.523Z,18.40
2023-05-07T15:13:15.327Z,18.10
2023-05-07T15:15:44.851Z,17.80
2023-05-07T15:18:13.099Z,17.50
2023-05-07T15:20:41.900Z,17.20
2023-05-07T15:23:13.087Z,17.00
2023-05-07T15:25:42.867Z,16.80
2023-05-07T15:28:11.637Z,16.80
2023-05-07T15:30:39.742Z,16.70
2023-05-07T15:33:08.094Z,16.70
2023-05-07T15:35:36.507Z,16.70
2023-05-07T15:38:04.810Z,16.70
2023-05-07T15:40:33.845Z,16.80
2023-05-07T15:43:03.585Z,16.80
2023-05-07T15:45:31.828Z,16.80
2023-05-07T15:48:00.221Z,16.80
2023-05-07T15:50:29.645Z,16.80
2023-05-07T15:52:58.263Z,16.80
2023-05-07T15:55:26.594Z,16.80
2023-05-07T16:09:29.430Z,16.90
2023-05-07T16:11:57.672Z,16.80
2023-05-07T16:14:25.949Z,16.80
2023-05-07T16:16:54.775Z,16.80
2023-05-07T16:19:24.883Z,16.80
2023-05-07T16:21:53.155Z,16.90
2023-05-07T16:24:21.237Z,17.00
2023-05-07T16:26:50.732Z,17.00
2023-05-07T16:29:20.643Z,16.90
2023-05-07T16:31:48.735Z,17.00
2023-05-07T16:34:16.840Z,17.00
2023-05-07T16:36:44.939Z,17.00
2023-05-07T16:39:13.001Z,17.00
2023-05-07T16:41:41.072Z,17.00
2023-05-07T16:44:10.851Z,16.90
2023-05-07T16:46:38.940Z,16.90
2023-05-07T16:49:07.032Z,16.80
2023-05-07T16:51:35.938Z,16.70
2023-05-07T16:54:04.199Z,16.70
2023-05-07T16:56:32.356Z,16.70
2023-05-07T16:59:00.452Z,16.60
2023-05-07T17:01:32.591Z,16.60
2023-05-07T17:04:00.981Z,16.60
2023-05-07T17:06:29.267Z,16.60
2023-05-07T17:08:57.346Z,16.50
2023-05-07T17:11:27.960Z,16.40
2023-05-07T17:13:56.442Z,16.30
2023-05-07T17:16:24.663Z,16.30
2023-05-07T17:18:54.143Z,16.30
2023-05-07T17:21:22.279Z,16.40
2023-05-07T17:23:50.832Z,16.40
2023-05-07T17:26:18.954Z,16.40
2023-05-07T17:28:47.056Z,16.30
2023-05-07T17:31:15.195Z,16.30
2023-05-07T17:33:43.308Z,16.30
2023-05-07T17:36:12.773Z,16.20
2023-05-07T17:38:40.881Z,16.20
2023-05-07T17:41:08.964Z,16.30
2023-05-07T17:43:37.061Z,16.30
2023-05-07T17:46:05.194Z,16.30
2023-05-07T17:48:33.282Z,16.30
2023-05-07T17:51:04.440Z,16.30
2023-05-07T17:53:33.938Z,16.30
2023-05-07T17:56:02.009Z,16.30
2023-05-07T17:58:31.788Z,16.30
2023-05-07T18:00:59.976Z,16.30
2023-05-07T18:03:29.271Z,16.20
2023-05-07T18:05:57.752Z,16.30
2023-05-07T18:08:26.030Z,16.30
2023-05-07T18:10:55.485Z,16.30
2023-05-07T18:13:24.302Z,16.30
2023-05-07T18:15:52.629Z,16.30
2023-05-07T18:18:20.792Z,16.30
2023-05-07T18:20:50.962Z,16.30
2023-05-07T18:23:19.080Z,16.30
2023-05-07T18:25:47.903Z,16.30
2023-05-07T18:28:17.365Z,16.30
2023-05-07T18:30:45.442Z,16.30
2023-05-07T18:33:14.807Z,16.40
2023-05-07T18:35:45.660Z,16.40
2023-05-07T18:38:13.797Z,16.40
2023-05-07T18:40:44.113Z,16.30
2023-05-07T18:43:12.658Z,16.30
2023-05-07T18:45:42.170Z,16.40
2023-05-07T18:48:10.421Z,16.40
2023-05-07T18:50:38.525Z,16.30
2023-05-07T18:53:06.634Z,16.30
2023-05-07T19:06:58.839Z,16.20
2023-05-07T19:09:26.958Z,16.20
2023-05-07T19:11:56.620Z,16.20
2023-05-07T19:14:24.724Z,16.20
2023-05-07T19:16:52.817Z,16.10
2023-05-07T19:19:20.880Z,16.20
2023-05-07T19:21:48.944Z,16.20
2023-05-07T19:24:18.597Z,16.30
2023-05-07T19:26:46.775Z,16.30
2023-05-07T19:29:17.868Z,16.30
2023-05-07T19:31:47.088Z,16.20
2023-05-07T19:34:15.703Z,16.10
2023-05-07T19:36:43.858Z,16.10
2023-05-07T19:39:12.090Z,16.10
2023-05-07T19:41:43.257Z,16.00
2023-05-07T19:44:11.375Z,16.00
2023-05-07T19:46:44.578Z,16.00
2023-05-07T19:49:13.187Z,15.90
2023-05-07T19:51:42.895Z,15.90
2023-05-07T19:54:11.518Z,16.00
2023-05-07T19:56:41.931Z,16.10
2023-05-07T19:59:10.087Z,16.10
2023-05-07T20:01:39.107Z,16.20
2023-05-07T20:04:07.359Z,16.10
2023-05-07T20:06:35.646Z,16.10
2023-05-07T20:09:03.776Z,16.00
2023-05-07T20:11:32.005Z,16.00
2023-05-07T20:14:01.519Z,16.00
2023-05-07T20:16:29.650Z,15.90
2023-05-07T20:18:57.735Z,15.90
2023-05-07T20:33:00.313Z,16.00
2023-05-07T20:35:28.443Z,16.00
2023-05-07T20:37:56.783Z,16.00
2023-05-07T20:40:24.998Z,16.00
2023-05-07T20:42:53.182Z,16.10
2023-05-07T20:45:21.582Z,16.00
2023-05-07T20:47:49.775Z,16.10
2023-05-07T20:50:19.270Z,16.00
2023-05-07T20:52:47.354Z,15.90
2023-05-07T20:55:15.821Z,16.00
2023-05-07T20:57:43.989Z,15.90
2023-05-07T21:00:12.997Z,15.90
2023-05-07T21:02:41.288Z,15.90
2023-05-07T21:05:09.961Z,15.90
2023-05-07T21:11:58.009Z,15.80
2023-05-07T21:14:26.253Z,15.80
2023-05-07T21:16:54.476Z,15.80
2023-05-07T21:19:22.621Z,15.80
2023-05-07T21:21:50.793Z,15.80
2023-05-07T21:24:18.872Z,15.80
2023-05-07T21:26:46.944Z,15.80
2023-05-07T21:29:16.393Z,15.70
2023-05-07T21:31:44.447Z,15.70
2023-05-07T21:34:12.531Z,15.70
2023-05-07T21:36:40.820Z,15.70
2023-05-07T21:39:08.983Z,15.70
2023-05-07T21:41:37.531Z,15.70
2023-05-07T21:44:05.859Z,15.70
2023-05-07T21:46:35.546Z,15.70
2023-05-07T21:49:03.844Z,15.70
2023-05-07T21:51:34.258Z,15.70
2023-05-07T21:54:02.312Z,15.70
2023-05-07T21:56:30.374Z,15.60
2023-05-07T21:58:58.434Z,15.60
2023-05-07T22:01:26.518Z,15.60
2023-05-07T22:03:56.455Z,15.60
2023-05-07T22:06:25.233Z,15.60
2023-05-07T22:08:53.251Z,15.70
2023-05-07T22:11:21.871Z,15.70
2023-05-07T22:13:50.002Z,15.60
2023-05-07T22:27:52.336Z,15.70
2023-05-07T22:30:20.579Z,15.60
2023-05-07T22:32:48.852Z,15.60
2023-05-07T22:35:17.008Z,15.60
2023-05-07T22:37:45.059Z,15.50
2023-05-07T22:40:13.863Z,15.50
2023-05-07T22:42:42.116Z,15.50
2023-05-07T22:45:12.777Z,15.60
2023-05-07T22:47:41.026Z,15.50
2023-05-07T22:53:59.603Z,15.60
2023-05-07T22:56:27.656Z,15.60
2023-05-07T22:58:55.763Z,15.60
2023-05-07T23:01:25.269Z,15.50
2023-05-07T23:03:53.394Z,15.60
2023-05-07T23:06:21.479Z,15.60
2023-05-07T23:08:49.514Z,15.50
2023-05-07T23:15:09.321Z,15.50
2023-05-07T23:17:39.046Z,15.60
2023-05-07T23:20:08.629Z,15.50
2023-05-07T23:22:36.763Z,15.50
2023-05-07T23:25:05.348Z,15.50
2023-05-07T23:27:33.392Z,15.50
2023-05-07T23:30:01.459Z,15.50
2023-05-07T23:32:29.583Z,15.50
2023-05-07T23:34:59.081Z,15.40
2023-05-07T23:37:27.124Z,15.50
2023-05-07T23:39:55.323Z,15.40
2023-05-07T23:42:23.448Z,15.40
2023-05-07T23:44:51.907Z,15.40
2023-05-07T23:47:20.092Z,15.40
2023-05-07T23:57:21.355Z,15.40
2023-05-07T23:59:49.458Z,15.40
